Acworth, NH

2:51 AM EDT on September 02, 2014 (GMT -0400)
Beaudry Development | Change Station
CLOSE
Current Station
Personal Weather Station
Location: Charlestown, NH
Elevation: 600 ft
Nearby Weather Stations

Elev 600 ft 43.26 °N, 72.40 °W | Updated 11 seconds ago

Partly Cloudy
Partly Cloudy
64.9 °F
Feels Like 64.9 °F
N
0.0
Wind Variable Wind from ESE
Gusts 0.0 mph

Today
High -- | Low -- °F
--% Chance of Precip.
Yesterday
High -- | Low -- °F
Precip. -- in
6:14 AM 7:22 PM
Waxing Crescent, 48% visible
Pressure 29.91 in
Visibility 4.0 miles
Clouds Mostly Cloudy 200 ft
Dew Point 64 °F
Humidity 97%
Rainfall 0.00 in
Snow Depth Not available.
UV 0 out of 12
Pollen 5.50 out of 12
Air Quality Not available.
Flu Activity Not available.
SPECI KVSF 020646Z AUTO 32003KT 4SM BR BKN002 17/17 A2991 RMK AO2 T01720172

More Conditions Fewer Conditions

Pressure 29.91 in
Visibility 4.0 miles
Clouds Mostly Cloudy 200 ft
Dew Point 64 °F
Humidity 97%
Rainfall 0.00 in
Snow Depth Not available.
UV 0 out of 12
Pollen 5.50 out of 12
Air Quality Not available.
Flu Activity Not available.
SPECI KVSF 020646Z AUTO 32003KT 4SM BR BKN002 17/17 A2991 RMK AO2 T01720172

More Conditions Fewer Conditions

10-Day Weather Forecast

Almanac

Astronomy

Sep. 02, 2014 Rise Set
Actual Time 6:14 AM EDT 7:22 PM EDT
Civil Twilight 5:45 AM EDT 7:52 PM EDT
Nautical Twilight 5:10 AM EDT 8:26 PM EDT
Astronomical Twilight 4:33 AM EDT 9:03 PM EDT
Moon 2:07 PM EDT No Moon Set
Length of Visible Light 14h 06m
Length of Day
13h 08m
Tomorrow will be 2m 51s shorter.
Waxing Crescent, 48% of the Moon is Illuminated
Today
Waxing Crescent
Sep 2
First Quarter
Sep 8
Full
Sep 15
Last Quarter
Sep 24
New

Today's Extremes

State Highs State Lows

Community

WunderPhotos

Upload Photos

1,749,589 photos uploaded!

WunderBlogs® & News

Nearby

Snow Depth

Station Depth Elevation
No new snow has been reported.

Earthquake Activity

City Distance Mag. Time & Date
No recent earthquake activity has been reported nearby.
Minimum magnitude displayed is 2.5.

Coastal Water Temperatures

Place Temperature
No Stations Reporting

Nearby Weather Stations